Time;durP1;ratioP1;P1;durP2;ratioP2;P2;SDS_P1;SDS_P2;PMS_P1;PMS_P2;Temp;Humidity;BMP_temperature;BMP_pressure;BME280_temperature;BME280_humidity;BME280_pressure;Samples;Min_cycle;Max_cycle;Signal;HPM_P1;HPM_P2
2021/12/24 00:02:30;;;;;;;;;0.00;0.00;;;;;;;;5252035;28;11369;-66
2021/12/24 00:05:04;;;;;;;;;1.00;1.00;;;;;;;;5265581;28;11435;-68
2021/12/24 00:07:36;;;;;;;;;3.25;3.25;;;;;;;;5266061;28;11445;-69
2021/12/24 00:10:09;;;;;;;;;1.00;1.00;;;;;;;;5266118;28;11421;-67
2021/12/24 00:12:46;;;;;;;;;6.00;6.00;;;;;;;;5249573;28;11353;-68
2021/12/24 00:18:00;;;;;;;;;6.00;6.00;;;;;;;;5265711;28;11477;-68
2021/12/24 00:37:34;;;;;;;;;8.50;8.50;;;;;;;;5249112;28;11505;-68
2021/12/24 00:40:19;;;;;;;;;6.00;6.00;;;;;;;;5249020;28;11470;-68
2021/12/24 00:42:53;;;;;;;;;13.00;10.50;;;;;;;;5265961;28;11406;-68
2021/12/24 00:45:30;;;;;;;;;3.25;3.25;;;;;;;;5252566;28;11503;-68
2021/12/24 00:48:04;;;;;;;;;8.25;8.25;;;;;;;;5269935;28;11384;-68
2021/12/24 00:50:55;;;;;;;;;8.00;8.00;;;;;;;;5269479;28;11587;-67
2021/12/24 00:56:35;;;;;;;;;7.00;7.00;;;;;;;;5270675;28;12132;-68
2021/12/24 00:59:06;;;;;;;;;7.50;4.00;;;;;;;;5252608;28;11445;-67
2021/12/24 01:01:38;;;;;;;;;3.50;3.50;;;;;;;;5252289;28;11378;-67
2021/12/24 01:04:10;;;;;;;;;6.00;6.00;;;;;;;;5252118;28;11384;-68
2021/12/24 01:06:44;;;;;;;;;3.00;3.00;;;;;;;;5269264;28;11580;-67
2021/12/24 01:09:16;;;;;;;;;1.00;1.00;;;;;;;;5269240;28;11489;-67
2021/12/24 01:11:48;;;;;;;;;4.00;4.00;;;;;;;;5268816;28;11372;-67
2021/12/24 01:14:21;;;;;;;;;5.50;5.50;;;;;;;;5269332;28;11387;-67
2021/12/24 01:17:11;;;;;;;;;0.00;0.00;;;;;;;;5253057;28;12065;-67
2021/12/24 01:19:46;;;;;;;;;6.25;6.25;;;;;;;;5269508;28;12053;-67
2021/12/24 01:25:43;;;;;;;;;4.00;4.00;;;;;;;;5270527;28;11549;-68
2021/12/24 01:45:00;;;;;;;;;3.00;3.00;;;;;;;;5268350;28;11445;-65
2021/12/24 01:47:32;;;;;;;;;4.50;4.50;;;;;;;;5268013;28;11366;-66
2021/12/24 01:50:03;;;;;;;;;2.25;2.25;;;;;;;;5251409;28;11383;-66
2021/12/24 01:52:38;;;;;;;;;2.00;2.00;;;;;;;;5252046;28;11380;-66
2021/12/24 01:55:28;;;;;;;;;0.00;0.00;;;;;;;;5269748;28;12095;-66
2021/12/24 01:58:00;;;;;;;;;2.50;2.50;;;;;;;;5251563;28;11360;-66
2021/12/24 02:00:36;;;;;;;;;0.00;0.00;;;;;;;;5251585;28;11360;-66
2021/12/24 02:03:10;;;;;;;;;4.00;4.00;;;;;;;;5251971;28;11535;-67
2021/12/24 02:05:42;;;;;;;;;3.50;3.50;;;;;;;;5268422;28;12096;-67
2021/12/24 02:08:14;;;;;;;;;1.50;1.50;;;;;;;;5251051;28;12182;-67
2021/12/24 02:10:46;;;;;;;;;3.00;3.00;;;;;;;;5251165;28;11354;-66
2021/12/24 02:13:42;;;;;;;;;4.50;4.50;;;;;;;;5254376;28;11368;-66
2021/12/24 02:16:39;;;;;;;;;1.00;1.00;;;;;;;;5251017;28;11377;-67
2021/12/24 02:28:22;;;;;;;;;3.00;2.00;;;;;;;;5268819;28;11486;-67
2021/12/24 02:31:13;;;;;;;;;1.75;1.75;;;;;;;;5268434;28;11359;-66
2021/12/24 02:33:48;;;;;;;;;7.00;6.50;;;;;;;;5234638;28;11381;-66
2021/12/24 02:36:21;;;;;;;;;0.50;0.50;;;;;;;;5267986;28;11386;-67
2021/12/24 02:38:53;;;;;;;;;12.00;12.00;;;;;;;;5267244;28;11520;-68
2021/12/24 02:41:24;;;;;;;;;7.50;7.50;;;;;;;;5267205;28;11406;-67
2021/12/24 02:43:56;;;;;;;;;0.00;0.00;;;;;;;;5268951;28;11418;-67
2021/12/24 02:47:37;;;;;;;;;4.25;4.25;;;;;;;;5271167;28;11489;-67
2021/12/24 02:53:55;;;;;;;;;1.00;1.00;;;;;;;;5260349;28;11355;-68
2021/12/24 02:54:59;;;;;;;;;1.00;1.00;;;;;;;;5254372;28;11357;-68
2021/12/24 02:57:32;;;;;;;;;1.50;1.00;;;;;;;;5271092;28;10897;-68
2021/12/24 03:00:14;;;;;;;;;3.00;3.00;;;;;;;;5254212;28;11019;-67
2021/12/24 03:02:47;;;;;;;;;1.50;1.50;;;;;;;;5271732;28;10974;-67
2021/12/24 03:05:20;;;;;;;;;6.00;6.00;;;;;;;;5237270;28;11023;-67
2021/12/24 03:07:51;;;;;;;;;4.00;4.00;;;;;;;;5270338;28;11107;-66
2021/12/24 03:10:23;;;;;;;;;7.50;7.50;;;;;;;;5271124;28;11147;-67
2021/12/24 03:12:54;;;;;;;;;5.00;5.00;;;;;;;;5271019;28;12104;-67
2021/12/24 03:15:25;;;;;;;;;5.75;5.75;;;;;;;;5237613;28;11377;-66
2021/12/24 03:18:22;;;;;;;;;1.00;1.00;;;;;;;;5273896;28;11337;-67
2021/12/24 03:24:34;;;;;;;;;9.00;9.00;;;;;;;;5270563;28;11562;-66
2021/12/24 03:26:54;;;;;;;;;3.50;3.00;;;;;;;;5270295;28;11443;-67
2021/12/24 03:29:25;;;;;;;;;6.75;6.75;;;;;;;;5270798;28;10976;-67
2021/12/24 03:32:15;;;;;;;;;9.00;9.00;;;;;;;;5256742;28;11046;-67
2021/12/24 03:34:46;;;;;;;;;6.00;6.00;;;;;;;;5253834;28;11000;-66
2021/12/24 03:37:18;;;;;;;;;6.75;5.75;;;;;;;;5253703;28;11538;-66
2021/12/24 03:39:50;;;;;;;;;4.00;4.00;;;;;;;;5270442;28;11031;-66
2021/12/24 03:42:22;;;;;;;;;8.50;8.50;;;;;;;;5253680;28;10903;-66
2021/12/24 03:45:05;;;;;;;;;5.00;5.00;;;;;;;;5270422;28;11108;-66
2021/12/24 03:47:40;;;;;;;;;5.50;5.50;;;;;;;;5271386;28;10825;-66
2021/12/24 03:50:12;;;;;;;;;3.25;3.25;;;;;;;;5254149;28;10961;-66
2021/12/24 03:55:22;;;;;;;;;4.25;4.25;;;;;;;;5270959;28;10931;-66
2021/12/24 03:57:54;;;;;;;;;1.00;1.00;;;;;;;;5270606;28;10807;-66
2021/12/24 04:00:44;;;;;;;;;7.25;7.25;;;;;;;;5273744;28;10903;-66
2021/12/24 04:03:27;;;;;;;;;15.50;14.75;;;;;;;;5270536;28;11359;-67
2021/12/24 04:06:30;;;;;;;;;9.00;9.00;;;;;;;;5274820;28;11274;-67
2021/12/24 04:09:49;;;;;;;;;7.50;7.50;;;;;;;;5202682;28;11214;-67
2021/12/24 04:12:44;;;;;;;;;3.00;3.00;;;;;;;;5192511;28;11098;-67
2021/12/24 04:15:15;;;;;;;;;5.00;5.00;;;;;;;;5238799;28;10673;-67
2021/12/24 04:17:48;;;;;;;;;6.00;6.00;;;;;;;;5271881;28;11731;-67
2021/12/24 04:26:17;;;;;;;;;6.00;6.00;;;;;;;;5257442;28;11434;-67
2021/12/24 04:29:08;;;;;;;;;9.25;9.00;;;;;;;;5277027;28;10728;-67
2021/12/24 04:32:35;;;;;;;;;5.00;5.00;;;;;;;;5274285;28;10767;-67
2021/12/24 04:35:03;;;;;;;;;6.00;6.00;;;;;;;;5254932;28;11582;-66
2021/12/24 04:52:37;;;;;;;;;6.50;6.25;;;;;;;;5294097;28;10439;-69
2021/12/24 05:03:36;;;;;;;;;9.50;9.50;;;;;;;;5257634;28;11818;-68
2021/12/24 05:06:14;;;;;;;;;20.00;20.00;;;;;;;;5257801;28;10860;-68
2021/12/24 05:08:59;;;;;;;;;16.25;14.75;;;;;;;;5275573;28;11568;-66
2021/12/24 05:11:30;;;;;;;;;4.00;4.00;;;;;;;;5276825;28;11037;-66
2021/12/24 05:14:02;;;;;;;;;11.50;11.50;;;;;;;;5276903;28;11334;-67
2021/12/24 05:17:06;;;;;;;;;13.00;13.00;;;;;;;;5275433;28;10736;-69
2021/12/24 05:22:47;;;;;;;;;9.50;9.50;;;;;;;;5279441;28;10816;-70
2021/12/24 05:25:21;;;;;;;;;14.50;12.75;;;;;;;;5262783;28;11053;-67
2021/12/24 05:27:55;;;;;;;;;8.00;8.00;;;;;;;;5258854;28;10573;-67
2021/12/24 05:43:45;;;;;;;;;17.75;17.75;;;;;;;;5291140;28;10532;-66
2021/12/24 05:46:17;;;;;;;;;15.50;14.50;;;;;;;;5272334;28;11499;-67
2021/12/24 05:49:26;;;;;;;;;16.25;15.50;;;;;;;;5279391;27;10912;-67
2021/12/24 05:52:15;;;;;;;;;13.25;11.75;;;;;;;;5279279;27;10788;-66
2021/12/24 05:55:04;;;;;;;;;9.50;9.50;;;;;;;;5311826;27;10841;-67
2021/12/24 05:57:36;;;;;;;;;15.50;12.75;;;;;;;;5293749;27;11429;-67
2021/12/24 06:00:09;;;;;;;;;27.25;25.50;;;;;;;;5293222;27;11401;-67
2021/12/24 06:02:50;;;;;;;;;25.75;25.75;;;;;;;;5261883;27;11404;-66
2021/12/24 06:05:40;;;;;;;;;19.00;19.00;;;;;;;;5311670;27;11127;-66
2021/12/24 06:08:11;;;;;;;;;11.25;10.50;;;;;;;;5293259;27;10968;-66
2021/12/24 06:10:43;;;;;;;;;8.00;8.00;;;;;;;;5293223;27;10794;-67
2021/12/24 06:13:14;;;;;;;;;26.75;26.75;;;;;;;;5275898;27;10735;-67
2021/12/24 06:20:10;;;;;;;;;13.00;11.25;;;;;;;;5289889;28;10857;-68
2021/12/24 06:22:42;;;;;;;;;3.75;3.75;;;;;;;;5238191;28;10578;-68
2021/12/24 06:25:13;;;;;;;;;10.25;9.25;;;;;;;;5271559;28;10254;-67
2021/12/24 06:28:03;;;;;;;;;2.25;0.75;;;;;;;;5271883;28;10420;-67
2021/12/24 06:30:34;;;;;;;;;17.50;17.50;;;;;;;;5272030;28;10519;-67
2021/12/24 06:33:05;;;;;;;;;6.50;1.50;;;;;;;;5271142;28;10737;-67
2021/12/24 06:35:37;;;;;;;;;12.00;12.00;;;;;;;;5271403;28;11410;-67
2021/12/24 06:38:27;;;;;;;;;11.00;10.75;;;;;;;;5271827;28;10595;-67
2021/12/24 06:41:17;;;;;;;;;1.00;1.00;;;;;;;;5290323;28;10692;-67
2021/12/24 06:43:48;;;;;;;;;9.50;9.50;;;;;;;;5271194;28;10469;-68
2021/12/24 06:46:37;;;;;;;;;3.75;3.75;;;;;;;;5273900;28;11571;-68
2021/12/24 06:49:10;;;;;;;;;12.75;12.75;;;;;;;;5271368;28;10479;-68
2021/12/24 06:51:42;;;;;;;;;13.50;11.00;;;;;;;;5252340;28;10371;-67
2021/12/24 06:54:13;;;;;;;;;5.25;5.25;;;;;;;;5271221;28;11258;-67
2021/12/24 06:57:02;;;;;;;;;12.25;12.25;;;;;;;;5301106;27;11191;-67
2021/12/24 06:59:33;;;;;;;;;20.25;19.25;;;;;;;;5275210;27;10288;-68
2021/12/24 07:02:05;;;;;;;;;3.75;3.75;;;;;;;;5292173;27;10423;-68
2021/12/24 07:04:36;;;;;;;;;3.50;3.50;;;;;;;;5290210;27;10301;-67
2021/12/24 07:07:07;;;;;;;;;12.00;12.00;;;;;;;;5270453;28;10162;-68
2021/12/24 07:09:42;;;;;;;;;4.00;4.00;;;;;;;;5271068;28;10438;-68
2021/12/24 07:12:14;;;;;;;;;13.00;13.00;;;;;;;;5271272;28;11395;-67
2021/12/24 07:14:47;;;;;;;;;13.75;13.75;;;;;;;;5271064;28;10039;-67
2021/12/24 07:17:36;;;;;;;;;9.75;8.50;;;;;;;;5289001;27;10217;-67
2021/12/24 07:20:08;;;;;;;;;10.00;9.75;;;;;;;;5291622;27;10746;-67
2021/12/24 07:22:39;;;;;;;;;11.00;11.00;;;;;;;;5291727;27;11549;-68
2021/12/24 07:25:11;;;;;;;;;7.75;7.75;;;;;;;;5257515;27;10276;-67
2021/12/24 07:27:42;;;;;;;;;16.25;16.25;;;;;;;;5258721;28;10215;-67
2021/12/24 07:30:32;;;;;;;;;7.25;7.25;;;;;;;;5257032;28;10176;-67
2021/12/24 07:33:03;;;;;;;;;4.67;4.00;;;;;;;;5270513;28;10001;-67
2021/12/24 07:35:34;;;;;;;;;6.00;4.00;;;;;;;;5282440;27;9810;-67
2021/12/24 07:38:05;;;;;;;;;10.75;10.75;;;;;;;;5309857;27;10235;-67
2021/12/24 07:40:38;;;;;;;;;8.25;8.25;;;;;;;;5274733;27;10716;-67
2021/12/24 07:43:09;;;;;;;;;3.00;0.50;;;;;;;;5287642;27;9756;-68
2021/12/24 07:45:42;;;;;;;;;6.50;5.50;;;;;;;;5257773;28;9750;-67
2021/12/24 07:48:15;;;;;;;;;3.75;3.75;;;;;;;;5280098;27;8920;-67
2021/12/24 07:53:18;;;;;;;;;7.75;7.75;;;;;;;;5309069;27;10779;-67
2021/12/24 07:55:49;;;;;;;;;14.25;14.25;;;;;;;;5281041;28;10183;-67
2021/12/24 07:58:21;;;;;;;;;7.00;4.50;;;;;;;;5272033;27;10136;-68
2021/12/24 08:00:52;;;;;;;;;10.75;9.25;;;;;;;;5261231;27;9969;-68
2021/12/24 08:03:25;;;;;;;;;17.25;17.25;;;;;;;;5253250;27;9710;-68
2021/12/24 08:05:56;;;;;;;;;6.75;6.75;;;;;;;;5271324;28;10052;-67
2021/12/24 08:08:27;;;;;;;;;9.67;9.67;;;;;;;;5255669;28;10436;-67
2021/12/24 08:10:58;;;;;;;;;7.67;7.67;;;;;;;;5294397;27;8788;-67
2021/12/24 08:13:29;;;;;;;;;1.67;1.67;;;;;;;;5314774;27;11384;-68
2021/12/24 08:16:00;;;;;;;;;1.67;1.67;;;;;;;;5277307;28;11385;-66
2021/12/24 08:18:50;;;;;;;;;0.00;0.00;;;;;;;;5295592;27;11422;-67
2021/12/24 08:21:40;;;;;;;;;7.00;6.67;;;;;;;;5285208;27;10393;-67
2021/12/24 08:24:30;;;;;;;;;4.67;4.67;;;;;;;;5267688;28;9481;-67
2021/12/24 08:27:01;;;;;;;;;6.33;6.33;;;;;;;;5279832;28;9740;-67
2021/12/24 08:29:32;;;;;;;;;6.67;6.67;;;;;;;;5263572;28;9718;-67
2021/12/24 08:32:04;;;;;;;;;6.33;6.33;;;;;;;;5289744;27;8770;-67
2021/12/24 08:34:35;;;;;;;;;4.00;4.00;;;;;;;;5261114;28;9467;-67
2021/12/24 08:37:06;;;;;;;;;9.33;9.00;;;;;;;;5279639;28;9324;-67
2021/12/24 08:39:55;;;;;;;;;4.00;4.00;;;;;;;;5301246;27;9363;-68
2021/12/24 08:42:26;;;;;;;;;7.00;7.00;;;;;;;;5289484;28;9535;-67
2021/12/24 08:44:57;;;;;;;;;1.00;1.00;;;;;;;;5276032;28;8862;-68
2021/12/24 08:47:28;;;;;;;;;9.33;9.33;;;;;;;;5274463;28;8849;-67
2021/12/24 08:49:59;;;;;;;;;5.33;5.33;;;;;;;;5268783;28;11461;-67
2021/12/24 08:52:49;;;;;;;;;17.33;12.67;;;;;;;;5267625;28;8836;-68
2021/12/24 08:55:20;;;;;;;;;9.33;9.33;;;;;;;;5249194;28;9653;-67
2021/12/24 08:57:50;;;;;;;;;6.00;6.00;;;;;;;;5266783;28;9658;-67
2021/12/24 09:00:23;;;;;;;;;6.33;6.33;;;;;;;;5265735;28;8812;-67
2021/12/24 09:02:54;;;;;;;;;4.00;4.00;;;;;;;;5266287;28;9189;-67
2021/12/24 09:05:25;;;;;;;;;7.67;7.67;;;;;;;;5267854;28;9553;-67
2021/12/24 09:07:56;;;;;;;;;10.00;10.00;;;;;;;;5270705;28;8783;-68
2021/12/24 09:10:27;;;;;;;;;12.00;10.00;;;;;;;;5285564;28;9588;-68
2021/12/24 09:12:58;;;;;;;;;12.33;12.33;;;;;;;;5290529;28;8789;-68
2021/12/24 09:15:30;;;;;;;;;18.50;18.50;;;;;;;;5277008;28;8813;-68
2021/12/24 09:18:02;;;;;;;;;18.75;17.50;;;;;;;;5270040;28;8916;-68
2021/12/24 09:20:38;;;;;;;;;20.33;20.33;;;;;;;;5268667;28;9900;-67
2021/12/24 09:23:10;;;;;;;;;18.00;13.00;;;;;;;;5251886;28;9822;-67
2021/12/24 09:25:41;;;;;;;;;12.00;12.00;;;;;;;;5250794;28;9655;-67
2021/12/24 09:28:12;;;;;;;;;18.67;18.67;;;;;;;;5290535;28;9406;-67
2021/12/24 09:30:43;;;;;;;;;11.00;11.00;;;;;;;;5273125;28;10434;-67
2021/12/24 09:33:14;;;;;;;;;11.33;11.00;;;;;;;;5272950;28;9484;-67
2021/12/24 09:35:45;;;;;;;;;12.00;12.00;;;;;;;;5286915;28;10810;-67
2021/12/24 09:38:16;;;;;;;;;6.67;6.67;;;;;;;;5269742;28;9931;-67
2021/12/24 09:40:47;;;;;;;;;8.33;8.33;;;;;;;;5279453;28;8794;-67
2021/12/24 09:43:18;;;;;;;;;3.33;3.33;;;;;;;;5290579;28;9551;-67
2021/12/24 09:45:49;;;;;;;;;8.33;7.33;;;;;;;;5289014;28;9200;-67
2021/12/24 09:48:20;;;;;;;;;6.67;6.00;;;;;;;;5289629;28;8766;-67
2021/12/24 09:50:51;;;;;;;;;3.67;3.67;;;;;;;;5290836;27;10299;-67
2021/12/24 09:53:22;;;;;;;;;10.67;10.00;;;;;;;;5267813;28;9714;-67
2021/12/24 09:55:53;;;;;;;;;9.33;9.33;;;;;;;;5289235;28;8789;-67
2021/12/24 09:58:24;;;;;;;;;17.33;15.00;;;;;;;;5290729;28;9579;-67
2021/12/24 10:00:55;;;;;;;;;12.67;11.33;;;;;;;;5272707;28;9623;-68
2021/12/24 10:03:37;;;;;;;;;13.67;13.67;;;;;;;;5288923;28;8862;-68
2021/12/24 10:06:26;;;;;;;;;12.00;12.00;;;;;;;;5291052;28;8820;-67
2021/12/24 10:09:05;;;;;;;;;9.33;9.33;;;;;;;;5275995;28;9191;-68
2021/12/24 10:11:49;;;;;;;;;6.33;6.33;;;;;;;;5268611;28;10804;-68
2021/12/24 10:14:21;;;;;;;;;9.67;9.67;;;;;;;;5250814;28;9077;-68
2021/12/24 10:16:54;;;;;;;;;9.33;9.33;;;;;;;;5250297;28;9147;-67
2021/12/24 10:19:47;;;;;;;;;6.67;6.67;;;;;;;;5267834;28;9323;-68
2021/12/24 10:22:19;;;;;;;;;12.00;12.00;;;;;;;;5250876;28;9233;-68
2021/12/24 10:25:00;;;;;;;;;6.33;6.33;;;;;;;;5252832;28;9149;-69
2021/12/24 10:27:33;;;;;;;;;6.00;6.00;;;;;;;;5288546;28;8941;-67
2021/12/24 10:30:17;;;;;;;;;9.00;9.00;;;;;;;;5255462;28;9114;-67
2021/12/24 10:33:08;;;;;;;;;9.00;7.67;;;;;;;;5288957;28;9938;-67
2021/12/24 10:40:03;;;;;;;;;10.00;10.00;;;;;;;;5289576;28;9100;-67
2021/12/24 10:42:39;;;;;;;;;5.33;4.00;;;;;;;;5290066;28;9255;-66
2021/12/24 10:45:17;;;;;;;;;3.00;3.00;;;;;;;;5288559;28;9107;-67
2021/12/24 10:56:27;;;;;;;;;7.00;6.67;;;;;;;;5267921;28;8892;-68
2021/12/24 11:03:24;;;;;;;;;9.67;9.67;;;;;;;;5268052;28;8712;-66
2021/12/24 11:06:08;;;;;;;;;7.67;6.67;;;;;;;;5268126;28;9051;-67
2021/12/24 11:08:40;;;;;;;;;7.00;7.00;;;;;;;;5233147;28;9869;-66
2021/12/24 11:15:47;;;;;;;;;13.00;12.00;;;;;;;;5267687;28;9820;-66
2021/12/24 11:18:20;;;;;;;;;10.00;10.00;;;;;;;;5250149;28;10075;-66
2021/12/24 11:20:59;;;;;;;;;5.33;5.33;;;;;;;;5268133;28;9113;-66
2021/12/24 11:27:54;;;;;;;;;15.33;12.67;;;;;;;;5287952;28;8901;-68
2021/12/24 11:30:26;;;;;;;;;8.33;8.33;;;;;;;;5271119;28;9042;-65
2021/12/24 11:32:56;;;;;;;;;15.67;13.00;;;;;;;;5287921;28;9022;-67
2021/12/24 11:35:28;;;;;;;;;8.33;8.33;;;;;;;;5287407;28;9890;-67
2021/12/24 11:38:00;;;;;;;;;24.67;24.33;;;;;;;;5270550;28;8832;-70
2021/12/24 11:40:32;;;;;;;;;12.00;12.00;;;;;;;;5271055;28;9616;-66
2021/12/24 11:43:04;;;;;;;;;13.67;13.67;;;;;;;;5270763;28;9185;-67
2021/12/24 11:45:35;;;;;;;;;13.00;13.00;;;;;;;;5303669;27;9390;-67
2021/12/24 11:48:07;;;;;;;;;9.67;9.00;;;;;;;;5274332;27;9201;-67
2021/12/24 11:50:39;;;;;;;;;10.00;10.00;;;;;;;;5274595;27;9030;-67
2021/12/24 11:53:14;;;;;;;;;9.67;9.67;;;;;;;;5291246;27;8925;-68
2021/12/24 11:55:48;;;;;;;;;7.00;7.00;;;;;;;;5257931;27;9021;-68
2021/12/24 11:58:20;;;;;;;;;15.33;15.33;;;;;;;;5257344;27;8867;-67
2021/12/24 12:00:53;;;;;;;;;10.00;10.00;;;;;;;;5274862;27;8922;-67
2021/12/24 12:03:35;;;;;;;;;10.00;10.00;;;;;;;;5291770;27;8859;-67
2021/12/24 12:06:10;;;;;;;;;3.33;3.33;;;;;;;;5274696;27;9075;-67
2021/12/24 12:09:08;;;;;;;;;12.00;11.67;;;;;;;;5309976;27;8948;-67
2021/12/24 12:11:41;;;;;;;;;12.67;12.67;;;;;;;;5275117;27;8858;-67
2021/12/24 12:14:15;;;;;;;;;1.00;1.00;;;;;;;;5291103;27;9000;-65
2021/12/24 12:16:46;;;;;;;;;9.75;9.75;;;;;;;;5274101;27;8935;-67
2021/12/24 12:19:30;;;;;;;;;5.50;5.00;;;;;;;;5257624;27;8770;-67
2021/12/24 12:24:57;;;;;;;;;16.00;16.00;;;;;;;;5274249;27;8913;-66
2021/12/24 12:27:33;;;;;;;;;11.33;11.33;;;;;;;;5309342;27;8929;-66
2021/12/24 12:30:16;;;;;;;;;14.00;13.67;;;;;;;;5274339;27;8999;-66
2021/12/24 12:32:48;;;;;;;;;9.67;9.67;;;;;;;;5257558;27;9023;-66
2021/12/24 12:35:19;;;;;;;;;6.25;5.00;;;;;;;;5257437;27;8914;-66
2021/12/24 12:37:56;;;;;;;;;14.33;13.00;;;;;;;;5291072;27;8821;-66
2021/12/24 12:40:29;;;;;;;;;4.67;4.00;;;;;;;;5314138;27;8766;-66
2021/12/24 12:43:10;;;;;;;;;3.00;3.00;;;;;;;;5261080;27;9135;-66
2021/12/24 12:45:46;;;;;;;;;12.33;12.00;;;;;;;;5278769;27;9038;-66
2021/12/24 12:48:27;;;;;;;;;11.00;11.00;;;;;;;;5278565;27;8933;-66
2021/12/24 12:51:02;;;;;;;;;12.00;11.33;;;;;;;;5261230;27;9163;-67
2021/12/24 12:53:36;;;;;;;;;9.67;9.67;;;;;;;;5278329;27;9095;-66
2021/12/24 12:56:15;;;;;;;;;12.33;12.00;;;;;;;;5312822;27;8841;-66
2021/12/24 12:58:55;;;;;;;;;12.67;11.67;;;;;;;;5260780;27;9043;-66
2021/12/24 13:01:27;;;;;;;;;9.00;9.00;;;;;;;;5260887;27;8922;-66
2021/12/24 13:03:57;;;;;;;;;5.67;5.67;;;;;;;;5294745;27;8833;-66
2021/12/24 13:06:43;;;;;;;;;12.33;12.33;;;;;;;;5294439;27;9120;-66
2021/12/24 13:09:21;;;;;;;;;15.33;14.33;;;;;;;;5261211;27;8762;-66
2021/12/24 13:11:53;;;;;;;;;15.33;15.33;;;;;;;;5294824;27;9082;-66
2021/12/24 13:14:26;;;;;;;;;13.67;13.67;;;;;;;;5260444;27;9305;-66
2021/12/24 13:20:12;;;;;;;;;12.00;12.00;;;;;;;;5294439;27;9201;-66
2021/12/24 13:22:43;;;;;;;;;12.33;12.33;;;;;;;;5260586;27;9195;-66
2021/12/24 13:25:15;;;;;;;;;15.67;15.67;;;;;;;;5277192;27;9029;-67
2021/12/24 13:27:52;;;;;;;;;11.67;11.67;;;;;;;;5312523;27;8746;-66
2021/12/24 13:30:24;;;;;;;;;22.67;21.67;;;;;;;;5277187;27;9015;-66
2021/12/24 13:33:00;;;;;;;;;18.33;18.33;;;;;;;;5260930;27;9265;-66
2021/12/24 13:35:38;;;;;;;;;14.67;14.67;;;;;;;;5294082;27;9308;-65
2021/12/24 13:38:17;;;;;;;;;16.33;15.33;;;;;;;;5261104;27;9106;-66
2021/12/24 13:40:48;;;;;;;;;13.00;12.67;;;;;;;;5277424;27;8987;-66
2021/12/24 13:43:19;;;;;;;;;5.33;5.33;;;;;;;;5312420;27;8941;-66
2021/12/24 13:45:52;;;;;;;;;12.00;10.00;;;;;;;;5294378;27;8810;-67
2021/12/24 13:49:14;;;;;;;;;10.33;8.00;;;;;;;;5297338;27;8858;-65
2021/12/24 13:54:37;;;;;;;;;18.00;17.33;;;;;;;;5294155;27;9334;-67
2021/12/24 13:57:08;;;;;;;;;21.00;21.00;;;;;;;;5311570;27;9171;-67
2021/12/24 13:59:39;;;;;;;;;15.67;15.67;;;;;;;;5311734;27;9941;-67
2021/12/24 14:02:10;;;;;;;;;5.33;5.33;;;;;;;;5311293;27;8793;-67
2021/12/24 14:04:41;;;;;;;;;16.33;11.67;;;;;;;;5311641;27;8774;-67
2021/12/24 14:07:12;;;;;;;;;13.00;13.00;;;;;;;;5293408;27;8912;-67
2021/12/24 14:09:43;;;;;;;;;12.33;12.00;;;;;;;;5293613;27;8778;-67
2021/12/24 14:12:33;;;;;;;;;14.67;13.67;;;;;;;;5296657;27;8815;-67
2021/12/24 14:15:10;;;;;;;;;15.33;15.33;;;;;;;;5293216;27;9029;-67
2021/12/24 14:23:31;;;;;;;;;12.67;12.67;;;;;;;;5269334;27;8814;-67
2021/12/24 14:26:04;;;;;;;;;13.67;12.67;;;;;;;;5292715;27;8891;-67
2021/12/24 14:28:35;;;;;;;;;14.50;13.50;;;;;;;;5258970;27;8782;-67
2021/12/24 14:31:06;;;;;;;;;18.00;18.00;;;;;;;;5311555;27;8781;-67
2021/12/24 14:33:37;;;;;;;;;21.67;19.67;;;;;;;;5311702;27;8771;-67
2021/12/24 14:36:15;;;;;;;;;25.67;24.00;;;;;;;;5292604;27;8782;-66
2021/12/24 14:39:16;;;;;;;;;26.33;24.67;;;;;;;;5311342;27;8758;-65
2021/12/24 14:41:47;;;;;;;;;11.67;11.67;;;;;;;;5259057;27;9104;-65
2021/12/24 14:44:30;;;;;;;;;18.67;18.67;;;;;;;;5275684;27;8979;-65
2021/12/24 14:47:01;;;;;;;;;12.67;12.33;;;;;;;;5258877;27;9522;-68
2021/12/24 14:49:33;;;;;;;;;11.00;11.00;;;;;;;;5310976;27;9162;-66
2021/12/24 14:52:19;;;;;;;;;19.33;19.33;;;;;;;;5258807;27;8781;-66
2021/12/24 14:55:07;;;;;;;;;9.33;9.33;;;;;;;;5275943;27;9073;-67
2021/12/24 14:57:55;;;;;;;;;18.00;17.67;;;;;;;;5292585;27;8924;-65
2021/12/24 15:00:32;;;;;;;;;29.67;28.33;;;;;;;;5258750;27;8929;-66
2021/12/24 15:03:13;;;;;;;;;15.33;13.00;;;;;;;;5257697;27;9086;-66
2021/12/24 15:05:47;;;;;;;;;19.00;19.00;;;;;;;;5292410;27;9122;-66
2021/12/24 15:08:23;;;;;;;;;23.00;23.00;;;;;;;;5258574;27;9036;-66
2021/12/24 15:11:07;;;;;;;;;6.00;6.00;;;;;;;;5275162;27;9002;-66
2021/12/24 15:13:58;;;;;;;;;9.25;8.00;;;;;;;;5294959;27;8759;-66
2021/12/24 15:16:33;;;;;;;;;25.67;20.67;;;;;;;;5258343;27;8754;-66
2021/12/24 15:19:05;;;;;;;;;16.50;15.50;;;;;;;;5291772;27;8864;-66
2021/12/24 15:21:36;;;;;;;;;3.25;2.25;;;;;;;;5258994;27;8790;-66
2021/12/24 15:24:11;;;;;;;;;16.50;15.00;;;;;;;;5275124;27;9533;-66
2021/12/24 15:26:42;;;;;;;;;29.33;29.33;;;;;;;;5274766;27;8794;-66
2021/12/24 15:29:32;;;;;;;;;25.33;19.33;;;;;;;;5294593;27;9331;-66
2021/12/24 15:32:03;;;;;;;;;37.00;36.67;;;;;;;;5291577;27;9397;-66
2021/12/24 15:34:33;;;;;;;;;29.00;28.67;;;;;;;;5291624;27;8904;-66
2021/12/24 15:37:04;;;;;;;;;10.67;9.67;;;;;;;;5291534;27;10983;-66
2021/12/24 15:39:35;;;;;;;;;18.33;18.00;;;;;;;;5274737;27;8794;-67
2021/12/24 15:42:06;;;;;;;;;21.00;21.00;;;;;;;;5274322;27;8766;-67
2021/12/24 15:44:55;;;;;;;;;16.25;15.00;;;;;;;;5309783;27;8860;-67
2021/12/24 15:47:26;;;;;;;;;23.33;23.33;;;;;;;;5291173;27;8774;-67
2021/12/24 15:49:57;;;;;;;;;16.33;16.33;;;;;;;;5291365;27;8790;-67
2021/12/24 15:52:47;;;;;;;;;22.67;22.00;;;;;;;;5310001;27;8778;-66
2021/12/24 15:55:18;;;;;;;;;27.00;25.00;;;;;;;;5274787;27;8874;-66
2021/12/24 15:57:49;;;;;;;;;17.33;17.33;;;;;;;;5291762;27;8770;-66
2021/12/24 16:00:20;;;;;;;;;22.00;22.00;;;;;;;;5274107;27;9085;-67
2021/12/24 16:02:51;;;;;;;;;19.00;19.00;;;;;;;;5274645;27;10646;-66
2021/12/24 16:05:22;;;;;;;;;6.00;6.00;;;;;;;;5309680;27;8837;-66
2021/12/24 16:07:53;;;;;;;;;18.25;18.25;;;;;;;;5273819;27;8767;-67
2021/12/24 16:10:24;;;;;;;;;19.00;19.00;;;;;;;;5291808;27;8785;-68
2021/12/24 16:12:57;;;;;;;;;19.67;18.33;;;;;;;;5309977;27;8793;-68
2021/12/24 16:15:29;;;;;;;;;13.50;13.50;;;;;;;;5313677;27;8797;-68
2021/12/24 16:18:02;;;;;;;;;20.25;19.50;;;;;;;;5261534;27;8774;-68
2021/12/24 16:20:33;;;;;;;;;17.50;17.50;;;;;;;;5295497;27;8802;-67
2021/12/24 16:23:04;;;;;;;;;16.33;16.33;;;;;;;;5313684;27;8774;-67
2021/12/24 16:25:35;;;;;;;;;18.67;18.67;;;;;;;;5279011;27;9555;-66
2021/12/24 16:28:06;;;;;;;;;18.00;16.00;;;;;;;;5295505;27;11491;-68
2021/12/24 16:30:37;;;;;;;;;13.67;13.67;;;;;;;;5313533;27;8770;-69
2021/12/24 16:33:08;;;;;;;;;13.25;13.25;;;;;;;;5295547;27;11451;-69
2021/12/24 16:35:39;;;;;;;;;22.67;22.00;;;;;;;;5313445;27;8842;-66
2021/12/24 16:38:10;;;;;;;;;5.33;5.33;;;;;;;;5294905;27;10488;-66
2021/12/24 16:40:42;;;;;;;;;19.00;19.00;;;;;;;;5277908;27;11661;-66
2021/12/24 16:43:13;;;;;;;;;20.75;20.75;;;;;;;;5313211;27;8794;-67
2021/12/24 16:45:44;;;;;;;;;44.33;37.00;;;;;;;;5294972;27;8817;-66
2021/12/24 16:48:15;;;;;;;;;27.33;25.67;;;;;;;;5278439;27;9347;-66
2021/12/24 16:55:09;;;;;;;;;16.25;15.50;;;;;;;;5313043;27;8695;-66
2021/12/24 16:57:41;;;;;;;;;19.67;19.67;;;;;;;;5313813;27;8865;-66
2021/12/24 17:00:12;;;;;;;;;7.00;7.00;;;;;;;;5295089;27;9583;-66
2021/12/24 17:02:43;;;;;;;;;11.25;11.25;;;;;;;;5295114;27;8770;-66
2021/12/24 17:05:14;;;;;;;;;17.50;16.00;;;;;;;;5294530;27;8800;-66
2021/12/24 17:07:45;;;;;;;;;10.67;10.67;;;;;;;;5294381;27;8754;-66
2021/12/24 17:10:17;;;;;;;;;7.00;7.00;;;;;;;;5312645;27;11379;-66
2021/12/24 17:12:48;;;;;;;;;12.75;12.00;;;;;;;;5260649;27;8762;-66
2021/12/24 17:15:20;;;;;;;;;12.25;12.25;;;;;;;;5260589;27;8766;-67
2021/12/24 17:17:51;;;;;;;;;49.00;46.33;;;;;;;;5277550;27;8755;-66
2021/12/24 17:20:40;;;;;;;;;89.25;67.00;;;;;;;;5312965;27;9110;-66
2021/12/24 17:23:30;;;;;;;;;56.75;49.25;;;;;;;;5313402;27;11419;-65
2021/12/24 17:26:00;;;;;;;;;50.33;45.67;;;;;;;;5293702;27;9991;-65
2021/12/24 17:28:31;;;;;;;;;35.67;32.00;;;;;;;;5313062;27;8775;-67
2021/12/24 17:31:02;;;;;;;;;31.67;28.00;;;;;;;;5313534;27;8777;-66
2021/12/24 17:33:33;;;;;;;;;20.67;18.33;;;;;;;;5294765;27;8783;-66
2021/12/24 17:36:04;;;;;;;;;18.67;16.00;;;;;;;;5312885;27;8779;-67
2021/12/24 17:38:35;;;;;;;;;10.00;10.00;;;;;;;;5312376;27;8777;-67
2021/12/24 17:41:06;;;;;;;;;13.00;12.33;;;;;;;;5294360;27;11512;-66
2021/12/24 17:43:37;;;;;;;;;6.00;6.00;;;;;;;;5260875;27;8825;-66
2021/12/24 17:46:08;;;;;;;;;8.33;8.33;;;;;;;;5313014;27;8833;-66
2021/12/24 17:48:38;;;;;;;;;12.33;12.33;;;;;;;;5277046;27;8770;-66
2021/12/24 17:51:28;;;;;;;;;12.75;11.50;;;;;;;;5313240;27;9489;-66
2021/12/24 17:53:59;;;;;;;;;15.00;14.33;;;;;;;;5312597;27;8774;-67
2021/12/24 17:56:30;;;;;;;;;7.00;7.00;;;;;;;;5277407;27;9453;-67
2021/12/24 17:59:02;;;;;;;;;15.33;15.33;;;;;;;;5311618;27;12188;-65
2021/12/24 18:01:33;;;;;;;;;18.00;17.25;;;;;;;;5259857;27;9697;-66
2021/12/24 18:04:04;;;;;;;;;3.00;3.00;;;;;;;;5312521;27;8782;-66
2021/12/24 18:06:35;;;;;;;;;12.75;12.75;;;;;;;;5293591;27;8801;-67
2021/12/24 18:09:06;;;;;;;;;10.00;10.00;;;;;;;;5293574;27;8813;-66